Impacts TAF Board INFO
FOR SITUATIONAL AWARENESS. NOT TO BE USED FOR FLIGHT PLANNING PURPOSES.
IDs:

KBOS - Boston/Logan Intl, MA, US

Issued at 0538 UTC 15 Dec 2017
Updated at 0821 UTC 15 Dec 2017
Potential Impact None Slight Moderate High
Time<<15/21Z 15/22Z 15/23Z 16/00Z 16/01Z 16/02Z 16/03Z 16/04Z 16/05Z 16/06Z 16/07Z 16/08Z 16/09Z>>
Type PRVL PRVL PRVL PRVL PRVL PRVL PRVL PRVL PRVL PRVL PRVL PRVL PRVL
VIS >6 >6 >6 >6 2 2 2 2 >6 >6 >6 >6 >6
CIG 100 100 100 100 15 15 15 15 45 45 45 45 --
Cover BKN BKN BKN BKN OVC OVC OVC OVC BKN BKN BKN BKN SCT
FltCat VFR VFR VFR VFR IFR IFR IFR IFR VFR VFR VFR VFR VFR
WX -- -- -- -- -SN -SN -SN -SN -- -- -- -- --
WDir 210 210 210 210 230 230 230 230 290 290 290 290 280
WSpd 8 8 8 8 5 5 5 5 10 10 10 10 10
WGst -- -- -- -- -- -- -- -- -- -- -- -- 17

Raw TAF
KBOS 150538Z 1506/1612 27011G21KT P6SM SKC
  FM151000 27010KT P6SM SKC
  FM151500 25006KT P6SM SCT250
  FM151800 21008KT P6SM BKN100
  FM160100 23005KT 2SM -SN OVC015
  FM160500 29010KT P6SM BKN045
  FM160900 28010G17KT P6SM SCT080


METAR Board
Radar Display
Forecast Discussion

FOR SITUATIONAL AWARENESS. NOT TO BE USED FOR FLIGHT PLANNING PURPOSES.